Terminal Aerodrome Forecast
Issued by NWS

Home | Current Version | Previous Version | Text Only | Print | Product List | Glossary On
Versions: 1 2 3 4 5 6 7 8 9 10 11 12 13 14 15 16 17 18 19 20 21 22 23 24 25 26 27
000
FTUS43 KDLH 190418 AAA
TAFHYR
TAF AMD
KHYR 190418Z 1904/1924 18004KT 3SM BR FEW250
     FM190600 18004KT 2SM BR SCT005
      TEMPO 1909/1913 1SM BR BKN005
     FM191500 18005KT 6SM BR SCT005=

USA.gov is the U.S. government's official web portal to all federal, state and local government web resources and services.